Time;durP1;ratioP1;P1;durP2;ratioP2;P2;SDS_P1;SDS_P2;PMS_P1;PMS_P2;Temp;Humidity;BMP_temperature;BMP_pressure;BME280_temperature;BME280_humidity;BME280_pressure;Samples;Min_cycle;Max_cycle;Signal;HPM_P1;HPM_P2
2021/11/05 00:02:11;;;;;;;4.90;4.47;;;10.30;73.20;;;;;;4969584;28;20411;-77
2021/11/05 00:04:37;;;;;;;4.75;4.55;;;10.30;73.20;;;;;;4967424;28;20023;-77
2021/11/05 00:07:05;;;;;;;4.72;4.53;;;10.30;73.20;;;;;;4966358;28;20051;-77
2021/11/05 00:09:31;;;;;;;4.60;4.40;;;10.30;73.30;;;;;;4967959;28;20039;-77
2021/11/05 00:11:57;;;;;;;4.63;4.43;;;10.20;73.30;;;;;;4959226;28;20042;-77
2021/11/05 00:14:23;;;;;;;4.32;4.13;;;10.30;73.30;;;;;;4974577;28;20041;-77
2021/11/05 00:16:49;;;;;;;4.50;4.30;;;10.30;73.40;;;;;;4950956;28;20043;-77
2021/11/05 00:19:15;;;;;;;4.30;4.10;;;10.20;73.30;;;;;;4965268;28;20038;-77
2021/11/05 00:21:41;;;;;;;4.00;3.80;;;10.30;73.30;;;;;;4964454;28;20030;-77
2021/11/05 00:24:08;;;;;;;4.47;4.28;;;10.30;73.30;;;;;;4986490;28;20480;-77
2021/11/05 00:26:34;;;;;;;4.47;4.28;;;10.30;73.30;;;;;;4972408;28;20050;-77
2021/11/05 00:29:00;;;;;;;4.55;4.35;;;10.30;73.30;;;;;;4972739;28;20054;-77
2021/11/05 00:31:26;;;;;;;5.03;4.72;;;10.40;73.30;;;;;;4969783;28;20030;-77
2021/11/05 00:33:52;;;;;;;4.78;4.57;;;10.30;73.30;;;;;;4971121;28;20026;-77
2021/11/05 00:36:18;;;;;;;5.43;5.03;;;10.40;73.30;;;;;;4956967;28;20051;-77
2021/11/05 00:38:45;;;;;;;4.55;4.35;;;10.40;73.40;;;;;;4973151;28;20537;-77
2021/11/05 00:41:11;;;;;;;4.50;4.20;;;10.40;73.30;;;;;;4973716;28;20038;-77
2021/11/05 00:43:37;;;;;;;4.35;4.15;;;10.40;73.30;;;;;;4968712;28;20038;-77
2021/11/05 00:46:04;;;;;;;4.50;4.30;;;10.40;73.30;;;;;;4971680;28;20054;-77
2021/11/05 00:48:30;;;;;;;4.57;4.38;;;10.40;73.40;;;;;;4971380;28;20503;-77
2021/11/05 00:50:57;;;;;;;4.47;4.28;;;10.40;73.40;;;;;;4971474;28;20046;-77
2021/11/05 00:53:23;;;;;;;4.75;4.45;;;10.50;73.40;;;;;;4972843;28;20035;-77
2021/11/05 00:55:49;;;;;;;5.10;4.68;;;10.40;73.30;;;;;;4969921;28;20030;-77
2021/11/05 00:58:16;;;;;;;4.80;4.50;;;10.40;73.40;;;;;;4971846;28;20035;-77
2021/11/05 01:00:42;;;;;;;4.50;4.30;;;10.40;73.40;;;;;;4968244;28;20712;-77
2021/11/05 01:03:08;;;;;;;4.28;4.07;;;10.40;73.40;;;;;;4973339;28;20063;-77
2021/11/05 01:05:36;;;;;;;4.40;4.20;;;10.40;73.40;;;;;;4973701;28;20045;-77
2021/11/05 01:08:03;;;;;;;4.70;4.50;;;10.40;73.40;;;;;;4974189;28;20035;-77
2021/11/05 01:10:29;;;;;;;4.40;4.20;;;10.40;73.40;;;;;;4973365;28;20365;-77
2021/11/05 01:12:55;;;;;;;5.32;4.97;;;10.40;73.50;;;;;;4972278;28;20038;-77
2021/11/05 01:15:21;;;;;;;4.72;4.53;;;10.40;73.60;;;;;;4972239;28;20031;-77
2021/11/05 01:17:47;;;;;;;4.55;4.35;;;10.40;73.60;;;;;;4973117;28;20471;-77
2021/11/05 01:20:15;;;;;;;4.90;4.65;;;10.30;73.60;;;;;;4981398;28;20041;-77
2021/11/05 01:22:42;;;;;;;4.88;4.65;;;10.30;73.70;;;;;;4975561;28;20030;-77
2021/11/05 01:25:08;;;;;;;4.70;4.50;;;10.30;73.60;;;;;;4958084;28;20050;-77
2021/11/05 01:27:34;;;;;;;4.60;4.40;;;10.30;73.70;;;;;;4971214;28;20045;-77
2021/11/05 01:30:00;;;;;;;4.60;4.40;;;10.30;73.70;;;;;;4972555;28;20039;-77
2021/11/05 01:32:27;;;;;;;4.45;4.25;;;10.30;73.70;;;;;;4972331;28;20106;-77
2021/11/05 01:34:53;;;;;;;4.50;4.30;;;10.30;73.70;;;;;;4970603;28;20047;-77
2021/11/05 01:37:19;;;;;;;4.60;4.40;;;10.30;73.80;;;;;;4971338;28;20046;-77
2021/11/05 01:39:45;;;;;;;5.72;5.43;;;10.30;73.80;;;;;;4971049;28;20062;-77
2021/11/05 01:42:11;;;;;;;4.43;4.22;;;10.30;73.90;;;;;;4974419;28;20074;-77
2021/11/05 01:44:38;;;;;;;16.05;4.95;;;10.30;73.80;;;;;;4973257;28;20038;-77
2021/11/05 01:47:04;;;;;;;4.60;4.40;;;10.30;73.90;;;;;;4970883;28;20049;-77
2021/11/05 01:49:30;;;;;;;4.90;4.65;;;10.20;73.80;;;;;;4969095;28;20503;-77
2021/11/05 01:51:56;;;;;;;4.55;4.30;;;10.20;73.90;;;;;;4971266;28;20041;-77
2021/11/05 01:54:23;;;;;;;5.00;4.75;;;10.20;73.90;;;;;;4970819;28;20485;-77
2021/11/05 01:56:49;;;;;;;4.47;4.28;;;10.20;73.90;;;;;;4972227;28;20051;-77
2021/11/05 01:59:33;;;;;;;4.53;4.30;;;10.20;73.90;;;;;;4969205;28;20162;-77
2021/11/05 02:02:00;;;;;;;4.85;4.45;;;10.20;74.00;;;;;;4969711;28;20042;-77
2021/11/05 02:04:27;;;;;;;4.57;4.38;;;10.20;73.90;;;;;;4968880;28;20034;-77
2021/11/05 02:06:53;;;;;;;4.60;4.40;;;10.20;74.00;;;;;;4970209;28;20678;-76
2021/11/05 02:09:22;;;;;;;5.13;4.93;;;10.20;74.00;;;;;;4970839;28;20273;-77
2021/11/05 02:11:49;;;;;;;4.80;4.60;;;10.20;74.00;;;;;;4956490;28;20597;-77
2021/11/05 02:14:20;;;;;;;5.03;4.82;;;10.20;74.00;;;;;;4970405;28;20361;-77
2021/11/05 02:16:47;;;;;;;5.43;5.13;;;10.10;74.80;;;;;;4969336;28;20468;-77
2021/11/05 02:19:15;;;;;;;5.00;4.80;;;10.10;74.10;;;;;;4960004;28;20484;-77
2021/11/05 02:21:42;;;;;;;5.63;5.35;;;10.00;74.20;;;;;;4960611;28;20031;-77
2021/11/05 02:24:09;;;;;;;5.72;5.43;;;10.00;74.20;;;;;;4972093;28;20042;-77
2021/11/05 02:26:35;;;;;;;6.25;5.80;;;9.90;74.30;;;;;;4970962;28;20053;-76
2021/11/05 02:29:02;;;;;;;5.72;5.43;;;9.90;74.40;;;;;;4973469;28;20026;-77
2021/11/05 02:31:28;;;;;;;16.20;5.47;;;9.80;74.40;;;;;;4975371;28;20054;-77
2021/11/05 02:33:54;;;;;;;5.63;5.32;;;9.80;74.50;;;;;;4969595;28;20388;-77
2021/11/05 02:36:20;;;;;;;5.15;4.75;;;9.80;74.50;;;;;;4968924;28;20051;-77
2021/11/05 02:38:46;;;;;;;5.05;4.85;;;9.70;74.50;;;;;;4971873;28;20046;-77
2021/11/05 02:41:12;;;;;;;4.50;4.30;;;9.70;74.50;;;;;;4970216;28;20408;-77
2021/11/05 02:43:38;;;;;;;5.40;5.10;;;9.70;74.60;;;;;;4970646;28;20408;-77
2021/11/05 02:46:05;;;;;;;5.00;4.70;;;9.60;74.50;;;;;;4969796;28;20050;-77
2021/11/05 02:48:32;;;;;;;4.70;4.50;;;9.60;74.60;;;;;;4968727;28;20043;-77
2021/11/05 02:50:58;;;;;;;5.40;4.53;;;9.60;74.60;;;;;;4971103;28;20058;-77
2021/11/05 02:53:24;;;;;;;4.40;4.20;;;9.60;74.70;;;;;;4969336;28;20035;-77
2021/11/05 02:55:50;;;;;;;4.68;4.43;;;9.50;74.70;;;;;;4970439;28;20034;-77
2021/11/05 02:58:16;;;;;;;4.10;3.90;;;9.50;74.80;;;;;;4968404;28;20392;-77
2021/11/05 03:00:45;;;;;;;5.03;4.68;;;9.50;75.60;;;;;;4967685;28;20402;-77
2021/11/05 03:03:12;;;;;;;4.28;4.07;;;9.40;74.80;;;;;;4964807;28;20073;-77
2021/11/05 03:05:38;;;;;;;4.07;3.88;;;9.40;74.90;;;;;;4962320;28;20058;-77
2021/11/05 03:08:04;;;;;;;4.20;4.00;;;9.40;74.90;;;;;;4964764;28;20027;-77
2021/11/05 03:10:34;;;;;;;4.40;4.20;;;9.40;74.90;;;;;;4968021;28;20038;-77
2021/11/05 03:13:00;;;;;;;4.25;4.05;;;9.30;74.90;;;;;;4966915;28;20391;-77
2021/11/05 03:15:26;;;;;;;4.20;3.90;;;9.30;74.90;;;;;;4972352;28;20055;-77
2021/11/05 03:17:54;;;;;;;4.57;4.28;;;9.30;74.90;;;;;;4969324;28;20035;-77
2021/11/05 03:20:20;;;;;;;4.13;3.90;;;9.30;75.00;;;;;;4967568;28;20048;-77
2021/11/05 03:22:47;;;;;;;4.43;4.22;;;9.30;75.00;;;;;;4962119;28;20062;-77
2021/11/05 03:25:13;;;;;;;4.10;3.90;;;9.30;75.00;;;;;;4978505;28;20392;-77
2021/11/05 03:27:40;;;;;;;4.40;4.20;;;9.30;75.00;;;;;;4966702;28;20505;-77
2021/11/05 03:30:08;;;;;;;4.53;4.32;;;9.20;74.90;;;;;;4968351;28;20034;-77
2021/11/05 03:32:35;;;;;;;3.95;3.75;;;9.20;74.90;;;;;;4966526;28;20582;-77
2021/11/05 03:35:01;;;;;;;4.38;4.18;;;9.20;74.90;;;;;;4968463;28;20043;-77
2021/11/05 03:37:27;;;;;;;4.13;3.92;;;9.20;75.00;;;;;;4966639;28;20031;-77
2021/11/05 03:39:53;;;;;;;4.30;4.10;;;9.20;74.90;;;;;;4979424;28;20042;-77
2021/11/05 03:42:19;;;;;;;10.13;4.07;;;9.20;74.90;;;;;;4968714;28;20043;-77
2021/11/05 03:44:45;;;;;;;4.20;4.00;;;9.20;75.00;;;;;;4970776;28;20499;-77
2021/11/05 03:47:11;;;;;;;4.18;3.97;;;9.20;75.00;;;;;;4971805;28;20058;-77
2021/11/05 03:49:37;;;;;;;4.00;3.80;;;9.20;75.00;;;;;;4974971;28;20054;-77
2021/11/05 03:52:04;;;;;;;3.88;3.67;;;9.20;75.00;;;;;;4973355;28;20476;-77
2021/11/05 03:54:30;;;;;;;3.58;3.42;;;9.20;75.00;;;;;;4972014;28;20467;-77
2021/11/05 03:56:56;;;;;;;3.58;3.40;;;9.20;75.00;;;;;;4974262;28;20034;-77
2021/11/05 03:59:22;;;;;;;3.70;3.50;;;9.20;75.00;;;;;;4972587;28;20054;-77
2021/11/05 04:01:48;;;;;;;4.20;4.00;;;9.20;75.00;;;;;;4971695;28;20042;-77
2021/11/05 04:04:15;;;;;;;4.63;4.30;;;9.20;75.00;;;;;;4973710;28;20035;-77
2021/11/05 04:06:42;;;;;;;4.28;4.07;;;9.20;75.00;;;;;;4973731;28;20066;-77
2021/11/05 04:09:08;;;;;;;4.65;4.45;;;9.20;75.00;;;;;;4973405;28;20045;-77
2021/11/05 04:11:34;;;;;;;4.95;4.75;;;9.20;75.10;;;;;;4973057;28;20403;-77
2021/11/05 04:14:00;;;;;;;4.70;4.50;;;9.20;75.10;;;;;;4973133;28;20022;-77
2021/11/05 04:16:26;;;;;;;5.22;4.93;;;9.20;75.20;;;;;;4972351;28;20046;-77
2021/11/05 04:18:52;;;;;;;4.82;4.63;;;9.10;75.20;;;;;;4974165;28;20035;-77
2021/11/05 04:21:18;;;;;;;5.25;5.00;;;9.10;75.20;;;;;;4971861;28;20035;-77
2021/11/05 04:23:45;;;;;;;5.47;5.18;;;9.10;75.20;;;;;;4972329;28;20047;-77
2021/11/05 04:26:11;;;;;;;5.47;5.18;;;9.00;75.20;;;;;;4971138;28;20057;-77
2021/11/05 04:28:37;;;;;;;4.75;4.55;;;9.00;76.10;;;;;;4973167;28;20034;-77
2021/11/05 04:31:03;;;;;;;4.53;4.32;;;8.90;75.30;;;;;;4983619;28;20045;-77
2021/11/05 04:33:32;;;;;;;4.80;4.60;;;8.90;75.40;;;;;;4971884;28;20038;-77
2021/11/05 04:36:01;;;;;;;4.20;4.00;;;8.90;75.50;;;;;;4974911;28;20395;-77
2021/11/05 04:38:27;;;;;;;4.30;4.10;;;8.80;75.50;;;;;;4969734;28;20053;-77
2021/11/05 04:40:54;;;;;;;4.10;3.90;;;8.80;75.50;;;;;;4982328;28;20133;-77
2021/11/05 04:43:20;;;;;;;3.97;3.75;;;8.80;75.50;;;;;;4970866;28;20402;-77
2021/11/05 04:45:46;;;;;;;3.70;3.50;;;8.80;75.50;;;;;;4973273;28;20110;-77
2021/11/05 04:48:12;;;;;;;3.90;3.70;;;8.80;75.60;;;;;;4971762;28;20497;-77
2021/11/05 04:50:38;;;;;;;3.65;3.45;;;8.80;75.50;;;;;;4974485;28;20027;-77
2021/11/05 04:53:04;;;;;;;4.30;4.00;;;8.80;75.40;;;;;;4970001;28;20026;-77
2021/11/05 04:55:30;;;;;;;3.75;3.55;;;8.90;75.50;;;;;;4972225;28;20026;-77
2021/11/05 04:57:57;;;;;;;3.92;3.72;;;8.90;75.40;;;;;;4970082;28;20030;-77
2021/11/05 05:00:23;;;;;;;3.70;3.50;;;8.90;75.30;;;;;;4973035;28;20069;-77
2021/11/05 05:02:50;;;;;;;3.92;3.72;;;8.90;75.30;;;;;;4973239;28;20043;-77
2021/11/05 05:05:16;;;;;;;3.90;3.70;;;8.90;75.30;;;;;;4971912;28;20039;-77
2021/11/05 05:07:42;;;;;;;3.80;3.60;;;9.00;75.30;;;;;;4974563;28;20388;-77
2021/11/05 05:10:08;;;;;;;4.07;3.88;;;9.00;75.20;;;;;;4980534;28;20191;-77
2021/11/05 05:12:35;;;;;;;3.40;3.30;;;9.00;75.20;;;;;;4972714;28;20030;-77
2021/11/05 05:15:01;;;;;;;4.03;3.72;;;9.00;75.20;;;;;;4972306;28;20039;-77
2021/11/05 05:17:27;;;;;;;4.75;4.00;;;9.00;75.20;;;;;;4972763;28;20034;-77
2021/11/05 05:19:53;;;;;;;3.53;3.40;;;9.10;75.10;;;;;;4973233;28;20543;-77
2021/11/05 05:22:19;;;;;;;3.25;3.08;;;9.10;75.80;;;;;;4971283;28;20019;-77
2021/11/05 05:24:45;;;;;;;3.70;3.50;;;9.10;75.10;;;;;;4972940;28;20479;-77
2021/11/05 05:27:11;;;;;;;3.95;3.75;;;9.10;75.10;;;;;;4970988;28;20049;-77
2021/11/05 05:29:37;;;;;;;3.80;3.60;;;9.10;75.00;;;;;;4975592;28;20456;-77
2021/11/05 05:32:04;;;;;;;3.70;3.50;;;9.10;75.10;;;;;;4969631;28;20032;-77
2021/11/05 05:34:30;;;;;;;4.18;3.88;;;9.10;75.10;;;;;;4969680;28;20051;-77
2021/11/05 05:36:56;;;;;;;3.40;3.30;;;9.10;75.10;;;;;;4971333;28;20054;-77
2021/11/05 05:39:22;;;;;;;3.80;3.60;;;9.10;75.10;;;;;;4972077;28;20361;-77
2021/11/05 05:41:48;;;;;;;4.60;4.30;;;9.10;75.00;;;;;;4975104;28;20034;-77
2021/11/05 05:44:14;;;;;;;3.97;3.78;;;9.10;75.00;;;;;;4967809;28;20396;-77
2021/11/05 05:46:41;;;;;;;4.10;3.90;;;9.10;75.00;;;;;;4969212;28;20047;-77
2021/11/05 05:49:07;;;;;;;3.65;3.45;;;9.10;75.00;;;;;;4972306;28;20039;-77
2021/11/05 05:51:33;;;;;;;5.03;4.72;;;9.10;75.00;;;;;;4971170;28;20030;-77
2021/11/05 05:54:00;;;;;;;10.20;4.40;;;9.10;75.00;;;;;;4970323;28;20018;-77
2021/11/05 05:56:26;;;;;;;4.30;4.10;;;9.10;75.10;;;;;;4983048;28;20043;-77
2021/11/05 05:58:52;;;;;;;3.72;3.53;;;9.10;75.10;;;;;;4968573;28;20038;-77
2021/11/05 06:01:18;;;;;;;3.83;3.63;;;9.10;75.10;;;;;;4970636;28;20046;-77
2021/11/05 06:03:44;;;;;;;3.90;3.70;;;9.10;75.10;;;;;;4967803;28;20050;-77
2021/11/05 06:06:11;;;;;;;4.07;3.88;;;9.10;75.10;;;;;;4972044;28;20039;-77
2021/11/05 06:08:37;;;;;;;3.78;3.58;;;9.10;75.10;;;;;;4973958;28;20055;-77
2021/11/05 06:11:03;;;;;;;3.90;3.70;;;9.10;75.10;;;;;;4950084;29;20043;-77
2021/11/05 06:13:29;;;;;;;3.88;3.67;;;9.10;75.20;;;;;;4969865;28;20031;-77
2021/11/05 06:15:55;;;;;;;4.20;3.78;;;9.10;75.10;;;;;;4969454;28;20496;-77
2021/11/05 06:18:21;;;;;;;4.20;4.00;;;9.10;75.10;;;;;;4972206;28;20338;-77
2021/11/05 06:20:47;;;;;;;3.20;3.10;;;9.10;75.10;;;;;;4972609;28;20043;-77
2021/11/05 06:23:14;;;;;;;4.10;3.90;;;9.10;75.10;;;;;;4967369;28;20502;-77
2021/11/05 06:25:40;;;;;;;4.50;4.30;;;9.10;75.10;;;;;;4969624;28;20038;-77
2021/11/05 06:28:06;;;;;;;3.75;3.55;;;9.10;75.20;;;;;;4971428;28;20500;-77
2021/11/05 06:30:32;;;;;;;3.92;3.72;;;9.10;75.10;;;;;;4969454;28;20042;-77
2021/11/05 06:33:00;;;;;;;3.67;3.47;;;9.10;75.20;;;;;;4973004;28;20035;-77
2021/11/05 06:35:26;;;;;;;3.83;3.63;;;9.10;75.10;;;;;;4971389;28;20050;-77
2021/11/05 06:37:52;;;;;;;3.85;3.65;;;9.10;75.10;;;;;;4971883;28;20046;-77
2021/11/05 06:40:18;;;;;;;4.00;3.80;;;9.10;75.10;;;;;;4971589;28;20038;-77
2021/11/05 06:42:44;;;;;;;7.82;4.40;;;9.10;75.10;;;;;;4970721;28;20027;-77
2021/11/05 06:45:11;;;;;;;3.80;3.60;;;9.10;75.10;;;;;;4970293;28;20404;-77
2021/11/05 06:47:37;;;;;;;3.92;3.72;;;9.10;75.20;;;;;;4970491;28;20054;-77
2021/11/05 06:50:04;;;;;;;4.20;4.00;;;9.10;75.20;;;;;;4970311;28;20388;-77
2021/11/05 06:52:30;;;;;;;3.50;3.30;;;9.10;75.20;;;;;;4966765;28;20031;-76
2021/11/05 06:54:56;;;;;;;3.97;3.78;;;9.10;75.20;;;;;;4970371;28;20027;-77
2021/11/05 06:57:22;;;;;;;3.95;3.75;;;9.10;75.30;;;;;;4969717;28;20027;-77
2021/11/05 06:59:48;;;;;;;4.63;4.30;;;9.10;75.30;;;;;;4969259;28;20034;-77
2021/11/05 07:02:15;;;;;;;4.07;3.88;;;9.10;75.20;;;;;;4968400;28;20046;-77
2021/11/05 07:04:41;;;;;;;3.78;3.58;;;9.20;75.20;;;;;;4970031;28;20494;-77
2021/11/05 07:07:07;;;;;;;4.28;3.88;;;9.20;75.10;;;;;;4967978;28;20058;-77
2021/11/05 07:09:33;;;;;;;4.20;4.00;;;9.20;75.10;;;;;;4971176;28;20031;-77
2021/11/05 07:11:59;;;;;;;4.00;3.80;;;9.10;75.10;;;;;;4971262;28;20065;-77
2021/11/05 07:14:25;;;;;;;3.83;3.63;;;9.20;75.30;;;;;;4964930;28;20385;-77
2021/11/05 07:16:51;;;;;;;5.03;4.72;;;9.20;75.20;;;;;;4963834;28;20411;-77
2021/11/05 07:19:18;;;;;;;4.03;3.83;;;9.20;75.20;;;;;;4969680;28;20392;-77
2021/11/05 07:21:45;;;;;;;4.13;3.92;;;9.20;75.20;;;;;;4969828;28;20030;-78
2021/11/05 07:24:11;;;;;;;3.97;3.78;;;9.20;75.20;;;;;;4969363;28;20042;-77
2021/11/05 07:26:40;;;;;;;4.28;4.00;;;9.20;75.30;;;;;;4970973;28;20047;-77
2021/11/05 07:29:08;;;;;;;4.20;4.00;;;9.20;75.30;;;;;;4967026;28;20042;-77
2021/11/05 07:31:35;;;;;;;3.65;3.47;;;9.20;75.30;;;;;;4967403;28;20041;-76
2021/11/05 07:34:01;;;;;;;3.78;3.58;;;9.20;75.20;;;;;;4967333;28;20042;-77
2021/11/05 07:36:27;;;;;;;4.10;3.80;;;9.30;75.30;;;;;;4969695;28;20047;-77
2021/11/05 07:38:53;;;;;;;4.30;4.10;;;9.30;75.20;;;;;;4970567;28;20038;-77
2021/11/05 07:41:20;;;;;;;4.40;4.07;;;9.30;75.20;;;;;;4970285;28;20039;-77
2021/11/05 07:43:49;;;;;;;3.90;3.70;;;9.40;75.20;;;;;;4973455;28;20073;-76
2021/11/05 07:46:15;;;;;;;4.93;4.40;;;9.40;75.10;;;;;;4969904;28;20046;-77
2021/11/05 07:48:41;;;;;;;4.15;3.95;;;9.40;75.10;;;;;;4967610;28;20055;-77
2021/11/05 07:51:07;;;;;;;4.00;3.80;;;9.40;75.20;;;;;;4969586;28;20045;-76
2021/11/05 07:53:33;;;;;;;8.45;5.35;;;9.40;75.20;;;;;;4972245;28;20111;-78
2021/11/05 07:55:59;;;;;;;4.50;4.30;;;9.30;75.20;;;;;;4969853;28;20035;-79
2021/11/05 07:58:25;;;;;;;4.40;4.20;;;9.30;75.20;;;;;;4969407;28;20400;-81
2021/11/05 08:00:52;;;;;;;5.75;4.65;;;9.30;75.30;;;;;;4967630;28;20518;-80
2021/11/05 08:03:18;;;;;;;4.05;3.85;;;9.30;75.40;;;;;;4966624;28;20031;-79
2021/11/05 08:05:44;;;;;;;4.47;4.18;;;9.30;75.40;;;;;;4971588;28;20027;-79
2021/11/05 08:08:11;;;;;;;4.68;4.43;;;9.30;75.30;;;;;;4968590;28;20054;-81
2021/11/05 08:10:37;;;;;;;4.43;4.20;;;9.30;75.20;;;;;;4969278;28;20035;-80
2021/11/05 08:13:03;;;;;;;4.65;4.35;;;9.30;75.20;;;;;;4968859;28;20381;-78
2021/11/05 08:15:29;;;;;;;4.10;3.90;;;9.30;75.30;;;;;;4967871;28;20031;-78
2021/11/05 08:17:55;;;;;;;4.25;4.05;;;9.30;75.20;;;;;;4969374;28;20026;-84
2021/11/05 08:20:21;;;;;;;4.55;4.35;;;9.40;75.30;;;;;;4949553;28;20043;-78
2021/11/05 08:22:47;;;;;;;3.95;3.75;;;9.40;75.20;;;;;;4965461;28;20023;-79
2021/11/05 08:25:15;;;;;;;4.88;4.57;;;9.50;75.20;;;;;;4965733;28;20511;-80
2021/11/05 08:27:41;;;;;;;4.93;4.63;;;9.50;75.00;;;;;;4968883;28;20054;-79
2021/11/05 08:30:11;;;;;;;4.53;4.32;;;9.50;75.00;;;;;;4968117;28;20031;-79
2021/11/05 08:32:38;;;;;;;5.03;4.63;;;9.60;74.90;;;;;;4973040;28;20031;-79
2021/11/05 08:35:05;;;;;;;3.95;3.75;;;9.70;74.80;;;;;;4969818;28;20377;-79
2021/11/05 08:37:31;;;;;;;4.55;4.35;;;9.70;74.80;;;;;;4972893;28;20369;-79
2021/11/05 08:39:57;;;;;;;4.40;4.20;;;9.80;74.70;;;;;;4970292;28;20026;-80
2021/11/05 08:42:24;;;;;;;4.80;4.60;;;9.90;74.60;;;;;;4973670;28;20399;-81
2021/11/05 08:44:50;;;;;;;4.88;4.68;;;10.00;74.60;;;;;;4973934;28;20034;-80
2021/11/05 08:47:16;;;;;;;4.88;4.68;;;10.00;74.40;;;;;;4971046;28;20146;-79
2021/11/05 08:49:42;;;;;;;4.78;4.57;;;10.00;74.30;;;;;;4977489;28;20022;-80
2021/11/05 08:52:08;;;;;;;4.63;4.43;;;10.10;74.30;;;;;;4972142;28;20041;-80
2021/11/05 08:54:34;;;;;;;4.97;4.68;;;10.20;74.40;;;;;;4969472;28;20396;-80
2021/11/05 08:57:00;;;;;;;4.85;4.65;;;10.20;74.20;;;;;;4972147;28;20035;-80
2021/11/05 08:59:27;;;;;;;4.50;4.30;;;10.30;74.20;;;;;;4972026;28;20042;-80
2021/11/05 09:01:55;;;;;;;4.70;4.50;;;10.30;74.10;;;;;;4970006;28;20035;-81
2021/11/05 09:04:22;;;;;;;4.70;4.50;;;10.40;74.10;;;;;;4971096;28;20038;-78
2021/11/05 09:06:48;;;;;;;5.28;4.97;;;10.40;73.90;;;;;;4956486;28;20042;-81
2021/11/05 09:09:17;;;;;;;6.78;4.70;;;10.50;73.90;;;;;;4971754;28;20019;-79
2021/11/05 09:11:44;;;;;;;5.22;4.93;;;10.50;73.90;;;;;;4972285;28;20484;-79
2021/11/05 09:14:10;;;;;;;4.93;4.72;;;10.60;73.80;;;;;;4969623;28;20400;-79
2021/11/05 09:16:37;;;;;;;4.90;4.70;;;10.60;73.70;;;;;;4971896;28;20031;-79
2021/11/05 09:19:03;;;;;;;4.82;4.63;;;10.70;73.60;;;;;;4963348;28;20039;-83
2021/11/05 09:21:31;;;;;;;5.53;5.22;;;10.80;73.40;;;;;;4953381;28;20036;-83
2021/11/05 09:23:58;;;;;;;4.65;4.45;;;10.80;73.50;;;;;;4972975;28;20049;-84
2021/11/05 09:26:25;;;;;;;4.60;4.40;;;11.00;73.40;;;;;;4971242;28;20030;-83
2021/11/05 09:28:51;;;;;;;4.72;4.53;;;11.10;73.20;;;;;;4971997;28;20055;-83
2021/11/05 09:31:18;;;;;;;4.30;4.10;;;11.20;73.00;;;;;;4969467;28;20046;-82
2021/11/05 09:33:44;;;;;;;4.78;4.47;;;11.40;73.00;;;;;;4970642;28;20023;-84
2021/11/05 09:36:10;;;;;;;4.72;4.43;;;11.50;72.90;;;;;;4967907;28;20058;-82
2021/11/05 09:38:36;;;;;;;4.40;4.10;;;11.60;72.40;;;;;;4983709;28;20042;-82
2021/11/05 09:41:03;;;;;;;4.72;4.50;;;11.70;72.30;;;;;;4969234;28;20396;-82
2021/11/05 09:43:29;;;;;;;4.78;4.57;;;11.70;72.50;;;;;;4967700;28;20049;-82
2021/11/05 09:45:56;;;;;;;4.80;4.60;;;11.80;72.60;;;;;;4969326;28;20408;-81
2021/11/05 09:48:22;;;;;;;5.22;4.93;;;11.80;72.50;;;;;;4971108;28;20041;-82
2021/11/05 09:50:48;;;;;;;4.75;4.55;;;11.90;72.60;;;;;;4956968;28;20488;-81
2021/11/05 09:53:15;;;;;;;4.72;4.53;;;12.00;72.30;;;;;;4972292;28;20065;-81
2021/11/05 09:55:45;;;;;;;6.10;5.63;;;12.00;72.20;;;;;;4971054;28;20022;-82
2021/11/05 09:58:12;;;;;;;5.53;5.22;;;12.10;72.30;;;;;;4954638;28;20043;-82
2021/11/05 10:00:38;;;;;;;6.38;5.10;;;12.10;72.20;;;;;;4970796;28;20038;-81
2021/11/05 10:03:04;;;;;;;4.72;4.53;;;12.20;72.20;;;;;;4964974;28;20030;-82
2021/11/05 10:05:31;;;;;;;4.57;4.38;;;12.20;72.10;;;;;;4972120;28;20388;-82
2021/11/05 10:07:59;;;;;;;4.93;4.72;;;12.30;71.90;;;;;;4968780;28;20062;-83
2021/11/05 10:10:36;;;;;;;4.97;4.68;;;12.40;71.70;;;;;;4969113;28;20034;-85
2021/11/05 10:13:07;;;;;;;4.78;4.57;;;12.40;71.50;;;;;;4968319;28;20026;-83
2021/11/05 10:15:44;;;;;;;4.60;4.40;;;12.40;71.40;;;;;;4968314;28;20050;-84
2021/11/05 10:18:10;;;;;;;4.35;4.15;;;12.40;71.50;;;;;;4970360;28;20026;-86
2021/11/05 10:20:36;;;;;;;5.05;4.82;;;12.40;71.30;;;;;;4972031;28;20034;-85
2021/11/05 10:23:03;;;;;;;5.10;4.90;;;12.40;71.20;;;;;;4968662;28;20041;-86
2021/11/05 10:25:39;;;;;;;5.03;4.82;;;12.40;71.30;;;;;;4967125;28;20050;-84
2021/11/05 10:28:12;;;;;;;4.80;4.60;;;12.50;71.40;;;;;;4968957;28;20046;-85
2021/11/05 10:30:43;;;;;;;4.53;4.32;;;12.50;71.10;;;;;;4969364;28;20498;-84
2021/11/05 10:33:11;;;;;;;5.05;4.85;;;12.60;71.10;;;;;;4970761;28;20046;-85
2021/11/05 10:35:38;;;;;;;4.78;4.57;;;12.60;70.90;;;;;;4962381;28;20399;-85
2021/11/05 10:38:05;;;;;;;4.97;4.78;;;12.60;70.90;;;;;;4970942;28;20022;-84
2021/11/05 10:40:38;;;;;;;4.53;4.32;;;12.70;71.00;;;;;;4970860;28;20045;-83
2021/11/05 10:43:04;;;;;;;4.97;4.78;;;12.80;70.90;;;;;;4966651;28;20039;-86
2021/11/05 10:45:30;;;;;;;4.63;4.43;;;12.90;71.00;;;;;;4968985;28;20032;-85
2021/11/05 10:47:58;;;;;;;5.60;5.20;;;13.00;70.60;;;;;;4952086;28;20047;-88
2021/11/05 10:50:36;;;;;;;5.90;5.35;;;13.00;70.60;;;;;;4955383;28;20386;-88
2021/11/05 10:53:08;;;;;;;5.35;5.15;;;13.10;70.60;;;;;;4970816;28;20058;-89
2021/11/05 10:55:43;;;;;;;5.25;5.05;;;13.30;70.50;;;;;;4951245;28;20058;-90
2021/11/05 10:58:29;;;;;;;5.53;5.30;;;13.30;70.10;;;;;;4968975;28;20053;-91
2021/11/05 11:01:00;;;;;;;5.20;5.00;;;13.40;70.10;;;;;;4976887;28;20038;-88
2021/11/05 11:03:45;;;;;;;5.47;5.18;;;13.40;69.90;;;;;;4957371;28;20046;-86
2021/11/05 11:06:13;;;;;;;5.40;5.20;;;13.50;70.00;;;;;;4974336;28;20042;-86
2021/11/05 11:08:44;;;;;;;8.18;5.20;;;13.60;69.80;;;;;;4977540;28;20069;-87
2021/11/05 11:11:26;;;;;;;5.13;4.93;;;13.70;69.70;;;;;;4969738;28;20034;-86
2021/11/05 11:13:57;;;;;;;5.40;5.20;;;13.80;69.00;;;;;;4969521;28;20042;-85
2021/11/05 11:16:25;;;;;;;5.35;5.15;;;13.90;69.50;;;;;;4951551;28;20043;-84
2021/11/05 11:18:53;;;;;;;5.43;5.22;;;13.90;68.10;;;;;;4960673;28;20019;-86
2021/11/05 11:21:19;;;;;;;5.53;5.22;;;13.80;67.30;;;;;;4953201;28;20055;-83
2021/11/05 11:23:45;;;;;;;5.30;5.10;;;13.70;67.40;;;;;;4973284;28;20471;-84
2021/11/05 11:26:11;;;;;;;6.03;5.72;;;13.70;67.60;;;;;;4969521;28;20400;-87
2021/11/05 11:28:38;;;;;;;5.85;5.55;;;13.70;67.40;;;;;;4969370;28;20051;-86
2021/11/05 11:31:04;;;;;;;5.40;5.18;;;13.60;67.50;;;;;;4969339;28;20053;-88
2021/11/05 11:33:30;;;;;;;5.68;5.40;;;13.40;67.50;;;;;;4968406;28;20039;-89
2021/11/05 11:35:57;;;;;;;6.00;5.60;;;13.30;67.50;;;;;;4969534;28;20051;-88
2021/11/05 11:38:23;;;;;;;5.35;5.13;;;13.30;67.60;;;;;;4971857;28;20035;-87
2021/11/05 11:40:49;;;;;;;5.38;5.18;;;13.20;67.60;;;;;;4969438;28;20476;-88
2021/11/05 11:43:16;;;;;;;5.95;5.65;;;13.10;67.60;;;;;;4957364;28;20051;-87
2021/11/05 11:45:51;;;;;;;5.75;5.45;;;13.10;67.70;;;;;;4956223;28;20036;-86
2021/11/05 11:48:36;;;;;;;6.10;5.75;;;13.00;67.50;;;;;;4967000;28;20039;-87
2021/11/05 11:51:24;;;;;;;5.43;5.20;;;13.10;67.20;;;;;;4969782;28;20392;-85
2021/11/05 11:54:02;;;;;;;6.22;5.90;;;13.20;66.70;;;;;;4967239;28;20035;-86
2021/11/05 11:56:35;;;;;;;7.35;7.05;;;13.30;66.60;;;;;;4952023;28;20461;-86
2021/11/05 11:59:06;;;;;;;5.95;5.65;;;13.30;66.30;;;;;;4949808;28;20042;-86
2021/11/05 12:01:35;;;;;;;6.35;6.05;;;13.40;65.90;;;;;;4954504;28;20043;-85
2021/11/05 12:04:09;;;;;;;7.07;6.78;;;13.30;65.50;;;;;;4968537;28;20474;-85
2021/11/05 12:06:55;;;;;;;7.30;7.00;;;13.40;65.60;;;;;;4969527;28;20031;-84
2021/11/05 12:09:32;;;;;;;5.30;5.10;;;13.40;65.20;;;;;;4967606;28;20031;-84
2021/11/05 12:12:20;;;;;;;5.35;5.15;;;13.40;64.50;;;;;;4969495;28;20039;-85
2021/11/05 12:15:10;;;;;;;6.15;5.65;;;13.30;64.40;;;;;;4973204;28;20035;-85
2021/11/05 12:17:45;;;;;;;5.82;5.55;;;13.20;64.00;;;;;;4959466;28;20046;-85
2021/11/05 12:20:33;;;;;;;6.00;5.70;;;13.20;64.20;;;;;;4975315;28;20039;-88
2021/11/05 12:23:11;;;;;;;6.05;5.72;;;13.30;63.80;;;;;;4976704;28;20038;-87
2021/11/05 12:26:01;;;;;;;5.78;5.50;;;13.40;63.50;;;;;;4969137;28;20035;-87
2021/11/05 12:28:38;;;;;;;5.82;5.53;;;13.40;63.20;;;;;;4970508;28;20526;-87
2021/11/05 12:31:27;;;;;;;5.78;5.47;;;13.40;63.10;;;;;;4952941;28;20035;-87
2021/11/05 12:33:54;;;;;;;5.93;5.63;;;13.30;63.20;;;;;;4980280;28;20515;-83
2021/11/05 12:36:20;;;;;;;5.93;5.63;;;13.30;63.40;;;;;;4973539;28;20043;-73
2021/11/05 12:39:01;;;;;;;6.13;5.72;;;13.30;63.50;;;;;;4973274;28;20039;-72
2021/11/05 12:41:27;;;;;;;5.85;5.55;;;13.30;63.30;;;;;;4974149;28;20041;-72
2021/11/05 12:43:53;;;;;;;6.75;6.35;;;13.30;63.20;;;;;;4970920;28;20036;-72
2021/11/05 12:46:20;;;;;;;8.63;8.23;;;13.30;63.00;;;;;;4971672;28;20047;-72
2021/11/05 12:48:52;;;;;;;6.43;6.13;;;13.30;63.00;;;;;;4968819;28;20042;-81
2021/11/05 12:51:34;;;;;;;6.68;6.28;;;13.20;62.70;;;;;;4971227;28;20039;-82
2021/11/05 12:54:15;;;;;;;6.32;6.03;;;13.10;63.00;;;;;;4968022;28;20050;-82
2021/11/05 12:56:42;;;;;;;6.53;6.22;;;13.00;63.00;;;;;;4973944;28;20031;-82